createdAt,value
2019-03-31T00:01:55.546Z,11.99
2019-03-31T00:04:26.946Z,12.00
2019-03-31T00:07:00.068Z,12.02
2019-03-31T00:09:31.962Z,11.91
2019-03-31T00:15:00.755Z,11.89
2019-03-31T00:17:32.159Z,11.89
2019-03-31T00:20:03.441Z,11.88
2019-03-31T00:22:35.954Z,11.87
2019-03-31T00:25:07.299Z,11.83
2019-03-31T00:27:38.477Z,11.90
2019-03-31T00:30:09.619Z,11.80
2019-03-31T00:32:59.925Z,11.68
2019-03-31T00:35:31.145Z,11.70
2019-03-31T00:38:03.377Z,11.70
2019-03-31T00:40:34.659Z,11.61
2019-03-31T00:43:05.789Z,11.52
2019-03-31T00:45:37.032Z,11.61
2019-03-31T00:48:08.264Z,11.48
2019-03-31T00:50:39.482Z,11.45
2019-03-31T00:53:10.600Z,11.49
2019-03-31T00:55:41.815Z,11.54
2019-03-31T00:58:16.049Z,11.58
2019-03-31T01:00:53.835Z,11.67
2019-03-31T01:03:27.091Z,11.61
2019-03-31T01:05:58.362Z,11.63
2019-03-31T01:08:30.369Z,11.60
2019-03-31T01:11:14.232Z,11.71
2019-03-31T01:13:49.891Z,11.68
2019-03-31T01:16:21.151Z,11.64
2019-03-31T01:18:52.453Z,11.71
2019-03-31T01:21:23.593Z,11.73
2019-03-31T01:23:54.713Z,11.81
2019-03-31T01:26:26.236Z,11.79
2019-03-31T01:28:57.751Z,11.78
2019-03-31T01:31:49.644Z,11.83
2019-03-31T01:34:25.236Z,11.81
2019-03-31T01:36:57.512Z,11.74
2019-03-31T01:39:29.797Z,11.78
2019-03-31T01:42:01.401Z,11.78
2019-03-31T01:44:35.658Z,11.76
2019-03-31T01:47:08.527Z,11.76
2019-03-31T01:49:39.687Z,11.77
2019-03-31T01:52:15.407Z,11.81
2019-03-31T01:54:56.483Z,11.81
2019-03-31T01:57:34.649Z,11.73
2019-03-31T02:00:10.595Z,11.75
2019-03-31T02:02:50.847Z,11.63
2019-03-31T02:05:22.067Z,11.64
2019-03-31T02:07:54.423Z,11.67
2019-03-31T02:10:25.735Z,11.60
2019-03-31T02:12:56.897Z,11.61
2019-03-31T02:15:28.254Z,11.59
2019-03-31T02:17:59.429Z,11.54
2019-03-31T02:20:30.772Z,11.51
2019-03-31T02:23:01.964Z,11.46
2019-03-31T02:25:33.249Z,11.43
2019-03-31T02:28:12.336Z,11.43
2019-03-31T02:30:43.469Z,11.39
2019-03-31T02:33:14.713Z,11.43
2019-03-31T02:36:00.073Z,11.40
2019-03-31T02:38:31.271Z,11.40
2019-03-31T02:41:03.545Z,11.29
2019-03-31T02:43:35.004Z,11.32
2019-03-31T02:46:15.570Z,11.29
2019-03-31T02:48:46.824Z,11.19
2019-03-31T02:51:18.213Z,11.17
2019-03-31T02:53:49.350Z,11.14
2019-03-31T02:56:20.857Z,11.10
2019-03-31T02:58:53.002Z,11.08
2019-03-31T03:01:25.588Z,11.09
2019-03-31T03:03:56.904Z,11.11
2019-03-31T03:06:29.080Z,11.11
2019-03-31T03:09:01.811Z,11.07
2019-03-31T03:11:36.558Z,11.05
2019-03-31T03:14:07.888Z,11.00
2019-03-31T03:16:39.145Z,11.01
2019-03-31T03:19:10.300Z,10.99
2019-03-31T03:21:41.439Z,10.99
2019-03-31T03:24:12.674Z,10.97
2019-03-31T03:26:44.003Z,10.91
2019-03-31T03:29:15.264Z,10.97
2019-03-31T03:31:56.491Z,10.98
2019-03-31T03:34:27.625Z,10.94
2019-03-31T03:36:59.562Z,10.98
2019-03-31T03:39:31.044Z,11.00
2019-03-31T03:42:36.239Z,10.96
2019-03-31T03:45:08.584Z,10.98
2019-03-31T03:47:39.800Z,10.87
2019-03-31T03:50:11.243Z,10.89
2019-03-31T03:52:42.404Z,10.96
2019-03-31T03:55:13.694Z,10.94
2019-03-31T03:57:44.790Z,10.94
2019-03-31T04:00:16.122Z,10.86
2019-03-31T04:02:47.407Z,10.91
2019-03-31T04:05:18.996Z,10.88
2019-03-31T04:07:50.346Z,10.89
2019-03-31T04:11:13.756Z,10.91
2019-03-31T04:13:45.091Z,10.96
2019-03-31T04:16:16.425Z,10.88
2019-03-31T04:18:47.601Z,10.83
2019-03-31T04:21:18.939Z,10.66
2019-03-31T04:23:50.154Z,10.68
2019-03-31T04:26:21.451Z,10.67
2019-03-31T04:28:52.626Z,10.62
2019-03-31T04:31:23.879Z,10.52
2019-03-31T04:33:55.017Z,10.49
2019-03-31T04:36:26.318Z,10.44
2019-03-31T04:39:00.115Z,10.26
2019-03-31T04:41:30.523Z,10.52
2019-03-31T04:44:01.712Z,10.54
2019-03-31T04:46:33.912Z,10.54
2019-03-31T04:49:06.164Z,10.57
2019-03-31T04:51:38.505Z,10.60
2019-03-31T04:54:09.621Z,10.58
2019-03-31T04:56:40.747Z,10.60
2019-03-31T04:59:11.982Z,10.51
2019-03-31T05:01:43.208Z,10.62
2019-03-31T05:04:14.443Z,10.54
2019-03-31T05:06:45.582Z,10.60
2019-03-31T05:09:17.660Z,10.62
2019-03-31T05:11:48.880Z,10.51
2019-03-31T05:14:20.009Z,10.61
2019-03-31T05:16:51.131Z,10.62
2019-03-31T05:19:22.392Z,10.62
2019-03-31T05:21:53.619Z,10.59
2019-03-31T05:24:24.662Z,10.59
2019-03-31T05:26:59.382Z,10.53
2019-03-31T05:29:37.746Z,10.48
2019-03-31T05:32:09.101Z,10.37
2019-03-31T05:34:40.216Z,10.33
2019-03-31T05:37:11.787Z,10.49
2019-03-31T05:39:42.935Z,10.55
2019-03-31T05:42:29.957Z,10.62
2019-03-31T05:45:06.291Z,10.55
2019-03-31T05:47:37.867Z,10.58
2019-03-31T05:50:13.101Z,10.45
2019-03-31T05:52:44.705Z,10.53
2019-03-31T05:55:27.140Z,10.72
2019-03-31T05:57:58.324Z,10.75
2019-03-31T06:00:38.320Z,10.78
2019-03-31T06:03:27.359Z,10.87
2019-03-31T06:06:04.626Z,10.81
2019-03-31T06:08:35.959Z,10.81
2019-03-31T06:11:07.210Z,10.85
2019-03-31T06:13:38.403Z,10.88
2019-03-31T06:16:17.010Z,10.88
2019-03-31T06:18:51.320Z,10.87
2019-03-31T06:21:22.676Z,10.84
2019-03-31T06:23:55.073Z,10.83
2019-03-31T06:26:26.275Z,10.72
2019-03-31T06:28:57.535Z,10.64
2019-03-31T06:31:30.775Z,10.66
2019-03-31T06:34:01.994Z,10.66
2019-03-31T06:37:02.624Z,10.62
2019-03-31T06:39:34.332Z,10.62
2019-03-31T06:42:05.775Z,10.56
2019-03-31T06:44:38.958Z,10.56
2019-03-31T06:47:10.501Z,10.39
2019-03-31T06:49:41.754Z,10.34
2019-03-31T06:52:13.011Z,10.37
2019-03-31T06:54:44.229Z,10.31
2019-03-31T06:57:15.479Z,10.35
2019-03-31T06:59:46.772Z,10.33
2019-03-31T07:02:18.022Z,10.38
2019-03-31T07:05:00.384Z,10.19
2019-03-31T07:07:23.845Z,10.20
2019-03-31T07:09:55.378Z,10.12
2019-03-31T07:12:27.596Z,10.09
2019-03-31T07:14:58.761Z,9.99
2019-03-31T07:17:29.996Z,9.97
2019-03-31T07:20:01.216Z,9.93
2019-03-31T07:22:33.650Z,9.82
2019-03-31T07:25:05.644Z,9.53
2019-03-31T07:27:37.033Z,9.65
2019-03-31T07:30:09.235Z,9.59
2019-03-31T07:32:40.488Z,9.44
2019-03-31T07:35:18.638Z,9.34
2019-03-31T07:37:48.236Z,9.52
2019-03-31T07:40:21.133Z,9.58
2019-03-31T07:42:52.667Z,9.28
2019-03-31T07:45:24.979Z,9.45
2019-03-31T07:47:56.273Z,9.47
2019-03-31T07:50:28.822Z,9.26
2019-03-31T07:53:01.047Z,9.28
2019-03-31T07:55:41.197Z,9.22
2019-03-31T07:58:17.588Z,9.42
2019-03-31T08:00:48.758Z,9.27
2019-03-31T08:03:22.074Z,9.36
2019-03-31T08:05:53.521Z,9.34
2019-03-31T08:08:27.585Z,9.24
2019-03-31T08:10:59.248Z,9.38
2019-03-31T08:13:34.219Z,9.25
2019-03-31T08:16:07.473Z,9.37
2019-03-31T08:18:39.053Z,9.15
2019-03-31T08:21:10.630Z,8.97
2019-03-31T08:23:43.865Z,9.02
2019-03-31T08:26:15.219Z,9.08
2019-03-31T08:28:46.329Z,9.04
2019-03-31T08:31:17.665Z,8.99
2019-03-31T08:33:54.108Z,8.80
2019-03-31T08:36:25.503Z,8.96
2019-03-31T08:39:00.307Z,8.95
2019-03-31T08:41:33.472Z,8.76
2019-03-31T08:44:08.682Z,8.99
2019-03-31T08:46:39.888Z,8.95
2019-03-31T08:49:13.988Z,8.92
2019-03-31T08:51:45.282Z,9.11
2019-03-31T08:54:16.532Z,8.93
2019-03-31T08:56:47.831Z,8.81
2019-03-31T08:59:29.963Z,8.96
2019-03-31T09:02:03.473Z,9.36
2019-03-31T09:04:34.807Z,9.38
2019-03-31T09:07:06.081Z,9.35
2019-03-31T09:09:37.228Z,9.12
2019-03-31T09:12:08.540Z,9.14
2019-03-31T09:14:40.848Z,9.00
2019-03-31T09:17:12.068Z,9.00
2019-03-31T09:19:43.638Z,9.11
2019-03-31T09:22:14.993Z,9.14
2019-03-31T09:24:54.384Z,9.07
2019-03-31T09:27:25.486Z,9.23
2019-03-31T09:29:56.628Z,9.38
2019-03-31T09:32:27.803Z,9.48
2019-03-31T09:34:58.924Z,9.56
2019-03-31T09:37:30.036Z,9.69
2019-03-31T09:40:01.335Z,9.66
2019-03-31T09:42:33.686Z,9.81
2019-03-31T09:45:05.696Z,9.94
2019-03-31T09:47:38.930Z,9.81
2019-03-31T09:50:11.580Z,9.69
2019-03-31T09:52:44.028Z,9.80
2019-03-31T09:55:22.902Z,9.85
2019-03-31T09:57:52.733Z,9.87
2019-03-31T10:00:50.748Z,9.76
2019-03-31T10:03:22.561Z,9.98
2019-03-31T10:05:53.688Z,9.87
2019-03-31T10:08:30.121Z,10.20
2019-03-31T10:11:02.968Z,10.38
2019-03-31T10:13:34.430Z,10.45
2019-03-31T10:16:05.780Z,10.60
2019-03-31T10:18:58.432Z,10.40
2019-03-31T10:21:29.703Z,10.29
2019-03-31T10:24:00.986Z,10.24
2019-03-31T10:26:32.619Z,10.16
2019-03-31T10:29:03.936Z,10.12
2019-03-31T10:31:35.240Z,10.20
2019-03-31T10:34:06.717Z,10.31
2019-03-31T10:36:44.882Z,10.31
2019-03-31T10:39:12.942Z,10.52
2019-03-31T10:41:53.811Z,10.68
2019-03-31T10:44:25.123Z,10.75
2019-03-31T10:47:02.300Z,10.89
2019-03-31T10:49:34.868Z,10.86
2019-03-31T10:52:06.198Z,11.02
2019-03-31T10:54:37.376Z,11.14
2019-03-31T10:57:08.585Z,11.43
2019-03-31T10:59:39.862Z,11.61
2019-03-31T11:02:11.082Z,11.56
2019-03-31T11:04:42.425Z,11.55
2019-03-31T11:07:13.699Z,11.58
2019-03-31T11:09:51.005Z,11.13
2019-03-31T11:12:22.266Z,11.47
2019-03-31T11:14:55.383Z,11.56
2019-03-31T11:17:26.647Z,11.80
2019-03-31T11:20:00.609Z,11.96
2019-03-31T11:22:41.556Z,12.16
2019-03-31T11:25:28.900Z,12.17
2019-03-31T11:27:58.016Z,12.28
2019-03-31T11:30:29.181Z,12.30
2019-03-31T11:33:00.373Z,12.18
2019-03-31T11:35:33.748Z,12.35
2019-03-31T11:38:04.978Z,12.26
2019-03-31T11:40:36.594Z,11.99
2019-03-31T11:43:07.929Z,12.17
2019-03-31T11:45:40.395Z,12.49
2019-03-31T11:48:11.909Z,12.71
2019-03-31T11:50:43.235Z,12.74
2019-03-31T11:53:14.571Z,12.68
2019-03-31T11:55:45.837Z,12.49
2019-03-31T11:58:17.193Z,12.47
2019-03-31T12:00:53.133Z,12.75
2019-03-31T12:03:24.654Z,12.97
2019-03-31T12:05:56.150Z,12.93
2019-03-31T12:08:27.653Z,12.90
2019-03-31T12:11:02.340Z,13.00
2019-03-31T12:13:35.686Z,13.41
2019-03-31T12:16:07.055Z,13.31
2019-03-31T12:18:41.737Z,13.43
2019-03-31T12:21:14.044Z,13.47
2019-03-31T12:23:47.261Z,13.57
2019-03-31T12:26:19.588Z,13.47
2019-03-31T12:28:57.591Z,13.54
2019-03-31T12:31:29.109Z,13.53
2019-03-31T12:34:00.882Z,13.51
2019-03-31T12:36:32.144Z,13.34
2019-03-31T12:39:05.972Z,13.18
2019-03-31T12:41:39.216Z,13.06
2019-03-31T12:44:11.362Z,13.14
2019-03-31T12:46:50.094Z,13.16
2019-03-31T12:49:21.490Z,13.16
2019-03-31T12:51:55.336Z,13.30
2019-03-31T12:54:32.059Z,13.36
2019-03-31T12:57:04.440Z,13.26
2019-03-31T12:59:35.768Z,13.25
2019-03-31T13:02:07.040Z,13.49
2019-03-31T13:04:38.374Z,13.57
2019-03-31T13:07:14.996Z,13.50
2019-03-31T13:09:54.292Z,13.38
2019-03-31T13:12:25.878Z,13.43
2019-03-31T13:14:57.351Z,13.37
2019-03-31T13:17:29.276Z,13.44
2019-03-31T13:20:02.168Z,13.15
2019-03-31T13:22:35.574Z,13.24
2019-03-31T13:25:07.206Z,13.52
2019-03-31T13:27:40.098Z,13.47
2019-03-31T13:30:12.116Z,13.40
2019-03-31T13:32:45.219Z,13.40
2019-03-31T13:35:22.591Z,13.65
2019-03-31T13:38:10.040Z,13.63
2019-03-31T13:40:30.040Z,13.37
2019-03-31T13:43:02.453Z,13.32
2019-03-31T13:45:33.763Z,13.16
2019-03-31T13:48:10.005Z,13.29
2019-03-31T13:50:42.564Z,13.22
2019-03-31T13:53:16.337Z,13.33
2019-03-31T13:55:53.499Z,13.39
2019-03-31T13:58:28.653Z,12.99
2019-03-31T14:01:02.057Z,12.68
2019-03-31T14:03:33.324Z,12.77
2019-03-31T14:06:07.643Z,12.71
2019-03-31T14:08:38.948Z,12.78
2019-03-31T14:11:10.353Z,12.96
2019-03-31T14:13:41.851Z,12.72
2019-03-31T14:16:13.144Z,12.95
2019-03-31T14:18:46.307Z,12.86
2019-03-31T14:21:17.758Z,12.93
2019-03-31T14:23:53.726Z,13.11
2019-03-31T14:26:25.144Z,12.96
2019-03-31T14:28:57.468Z,13.04
2019-03-31T14:31:28.713Z,13.13
2019-03-31T14:34:00.027Z,13.22
2019-03-31T14:36:31.411Z,13.25
2019-03-31T14:39:02.953Z,13.19
2019-03-31T14:41:34.312Z,13.08
2019-03-31T14:44:05.702Z,12.72
2019-03-31T14:46:38.211Z,12.71
2019-03-31T14:49:09.528Z,12.86
2019-03-31T14:51:42.874Z,12.65
2019-03-31T14:54:14.183Z,12.86
2019-03-31T14:56:46.953Z,12.75
2019-03-31T14:59:18.365Z,12.53
2019-03-31T15:01:49.582Z,12.65
2019-03-31T15:04:20.891Z,12.56
2019-03-31T15:06:53.291Z,12.57
2019-03-31T15:09:24.695Z,12.25
2019-03-31T15:11:56.018Z,12.33
2019-03-31T15:14:27.396Z,12.28
2019-03-31T15:16:59.699Z,12.38
2019-03-31T15:19:37.822Z,12.23
2019-03-31T15:22:12.614Z,12.23
2019-03-31T15:24:43.911Z,12.29
2019-03-31T15:27:15.155Z,12.33
2019-03-31T15:29:46.351Z,12.49
2019-03-31T15:32:17.471Z,12.46
2019-03-31T15:34:49.839Z,12.50
2019-03-31T15:37:25.819Z,12.35
2019-03-31T15:39:59.343Z,12.38
2019-03-31T15:42:31.645Z,12.50
2019-03-31T15:45:02.998Z,12.62
2019-03-31T15:47:35.997Z,12.59
2019-03-31T15:50:07.865Z,12.50
2019-03-31T15:52:39.587Z,12.42
2019-03-31T15:55:11.654Z,12.47
2019-03-31T15:57:42.962Z,12.35
2019-03-31T16:00:15.100Z,12.27
2019-03-31T16:02:48.961Z,12.01
2019-03-31T16:05:20.525Z,11.87
2019-03-31T16:07:51.473Z,12.14
2019-03-31T16:10:22.201Z,12.02
2019-03-31T16:12:54.256Z,12.05
2019-03-31T16:15:25.150Z,12.02
2019-03-31T16:17:55.900Z,12.06
2019-03-31T16:20:26.912Z,12.10
2019-03-31T16:23:01.071Z,12.14
2019-03-31T16:25:37.744Z,12.20
2019-03-31T16:28:15.223Z,11.88
2019-03-31T16:30:48.391Z,11.70
2019-03-31T16:33:19.649Z,11.89
2019-03-31T16:35:52.172Z,11.94
2019-03-31T16:38:25.727Z,11.87
2019-03-31T16:40:57.404Z,11.92
2019-03-31T16:43:29.323Z,11.93
2019-03-31T16:46:01.558Z,11.65
2019-03-31T16:48:33.748Z,11.73
2019-03-31T16:51:04.831Z,11.84
2019-03-31T16:53:39.300Z,11.90
2019-03-31T16:56:10.442Z,11.86
2019-03-31T16:58:42.396Z,11.79
2019-03-31T17:01:13.672Z,11.89
2019-03-31T17:03:44.591Z,11.96
2019-03-31T17:06:15.542Z,11.93
2019-03-31T17:08:47.622Z,12.01
2019-03-31T17:11:19.533Z,12.11
2019-03-31T17:13:52.439Z,11.93
2019-03-31T17:16:26.449Z,12.03
2019-03-31T17:18:57.515Z,11.96
2019-03-31T17:21:28.445Z,11.70
2019-03-31T17:23:59.381Z,11.71
2019-03-31T17:26:31.316Z,11.54
2019-03-31T17:29:05.911Z,11.57
2019-03-31T17:31:36.716Z,11.64
2019-03-31T17:34:07.565Z,11.49
2019-03-31T17:36:38.281Z,11.59
2019-03-31T17:39:09.026Z,11.57
2019-03-31T17:41:39.973Z,11.58
2019-03-31T17:44:10.659Z,11.46
2019-03-31T17:46:41.964Z,11.25
2019-03-31T17:49:13.062Z,11.35
2019-03-31T17:51:45.748Z,11.43
2019-03-31T17:54:17.414Z,11.43
2019-03-31T17:56:48.259Z,11.30
2019-03-31T17:59:20.067Z,11.43
2019-03-31T18:01:51.858Z,11.22
2019-03-31T18:04:34.162Z,11.24
2019-03-31T18:07:06.948Z,11.33
2019-03-31T18:09:38.130Z,11.15
2019-03-31T18:12:11.936Z,11.11
2019-03-31T18:14:45.419Z,11.21
2019-03-31T18:17:16.885Z,11.07
2019-03-31T18:19:49.022Z,10.94
2019-03-31T18:22:20.771Z,10.93
2019-03-31T18:24:54.521Z,10.88
2019-03-31T18:27:33.822Z,10.82
2019-03-31T18:30:07.190Z,10.86
2019-03-31T18:32:38.054Z,10.85
2019-03-31T18:35:08.834Z,10.81
2019-03-31T18:37:40.523Z,10.82
2019-03-31T18:40:12.425Z,10.81
2019-03-31T18:42:44.651Z,10.84
2019-03-31T18:45:20.183Z,10.72
2019-03-31T18:48:01.347Z,10.65
2019-03-31T18:50:33.958Z,10.76
2019-03-31T18:53:12.381Z,10.72
2019-03-31T18:55:51.193Z,10.80
2019-03-31T18:58:25.254Z,10.72
2019-03-31T19:01:11.386Z,10.65
2019-03-31T19:03:49.710Z,10.69
2019-03-31T19:06:28.440Z,10.60
2019-03-31T19:09:03.811Z,10.73
2019-03-31T19:11:59.084Z,10.72
2019-03-31T19:14:34.225Z,10.45
2019-03-31T19:17:15.843Z,10.42
2019-03-31T19:19:51.165Z,10.41
2019-03-31T19:22:24.754Z,10.49
2019-03-31T19:25:13.714Z,10.53
2019-03-31T19:27:49.487Z,10.59
2019-03-31T19:30:22.020Z,10.57
2019-03-31T19:33:15.209Z,10.54
2019-03-31T19:36:00.483Z,10.45
2019-03-31T19:38:50.875Z,10.36
2019-03-31T19:41:38.706Z,10.23
2019-03-31T19:44:18.446Z,10.03
2019-03-31T19:47:05.752Z,9.99
2019-03-31T19:49:38.399Z,10.07
2019-03-31T19:52:18.661Z,9.97
2019-03-31T19:54:54.222Z,9.97
2019-03-31T19:57:27.146Z,10.00
2019-03-31T20:00:15.742Z,10.04
2019-03-31T20:02:49.564Z,9.88
2019-03-31T20:05:25.249Z,9.91
2019-03-31T20:08:02.419Z,9.94
2019-03-31T20:10:54.450Z,9.66
2019-03-31T20:13:45.177Z,9.85
2019-03-31T20:16:36.034Z,9.53
2019-03-31T20:19:14.433Z,9.67
2019-03-31T20:22:20.515Z,9.50
2019-03-31T20:25:03.341Z,9.47
2019-03-31T20:27:54.214Z,9.45
2019-03-31T20:30:59.820Z,9.64
2019-03-31T20:33:32.119Z,9.84
2019-03-31T20:36:04.495Z,9.58
2019-03-31T20:38:55.393Z,9.59
2019-03-31T20:41:32.009Z,9.54
2019-03-31T20:44:02.808Z,9.36
2019-03-31T20:46:33.543Z,9.42
2019-03-31T20:49:04.287Z,9.34
2019-03-31T20:52:10.042Z,9.22
2019-03-31T20:54:41.816Z,9.06
2019-03-31T20:57:12.443Z,8.87
2019-03-31T20:59:43.198Z,9.02
2019-03-31T21:02:31.955Z,8.71
2019-03-31T21:05:02.585Z,8.95
2019-03-31T21:07:33.586Z,8.89
2019-03-31T21:10:07.390Z,8.87
2019-03-31T21:12:38.134Z,8.92
2019-03-31T21:15:08.842Z,8.90
2019-03-31T21:17:39.771Z,8.83
2019-03-31T21:20:10.687Z,8.88
2019-03-31T21:22:41.584Z,8.86
2019-03-31T21:25:13.823Z,8.87
2019-03-31T21:27:44.748Z,8.70
2019-03-31T21:30:33.662Z,8.85
2019-03-31T21:33:05.450Z,8.62
2019-03-31T21:35:48.439Z,8.56
2019-03-31T21:38:19.041Z,8.58
2019-03-31T21:40:50.033Z,8.62
2019-03-31T21:43:20.634Z,8.67
2019-03-31T21:45:58.238Z,8.30
2019-03-31T21:48:28.944Z,8.01
2019-03-31T21:50:59.674Z,8.15
2019-03-31T21:53:31.503Z,7.93
2019-03-31T21:56:02.135Z,8.00
2019-03-31T21:58:33.029Z,7.92
2019-03-31T22:01:29.995Z,7.86
2019-03-31T22:04:00.696Z,7.98
2019-03-31T22:06:32.513Z,7.63
2019-03-31T22:09:04.873Z,7.66
2019-03-31T22:11:37.072Z,7.52
2019-03-31T22:14:10.484Z,7.56
2019-03-31T22:16:42.222Z,7.73
2019-03-31T22:19:14.924Z,7.75
2019-03-31T22:21:51.617Z,7.36
2019-03-31T22:24:22.173Z,7.40
2019-03-31T22:26:52.660Z,7.44
2019-03-31T22:29:29.046Z,7.62
2019-03-31T22:31:59.737Z,7.39
2019-03-31T22:34:31.493Z,7.38
2019-03-31T22:37:03.258Z,7.20
2019-03-31T22:39:40.030Z,7.21
2019-03-31T22:42:10.768Z,7.06
2019-03-31T22:44:41.685Z,7.16
2019-03-31T22:47:19.797Z,6.96
2019-03-31T22:49:50.434Z,7.07
2019-03-31T22:52:21.178Z,7.11
2019-03-31T22:54:51.760Z,6.93
2019-03-31T22:57:22.416Z,6.99
2019-03-31T22:59:57.152Z,7.09
2019-03-31T23:02:31.708Z,7.05
2019-03-31T23:05:03.361Z,7.03
2019-03-31T23:07:34.073Z,7.09
2019-03-31T23:10:05.844Z,7.07
2019-03-31T23:12:36.699Z,7.04
2019-03-31T23:15:07.748Z,7.01
2019-03-31T23:17:41.665Z,6.76
2019-03-31T23:20:12.384Z,6.95
2019-03-31T23:22:42.866Z,6.78
2019-03-31T23:25:15.557Z,6.93
2019-03-31T23:27:46.265Z,6.53
2019-03-31T23:30:17.011Z,6.39
2019-03-31T23:32:53.445Z,6.37
2019-03-31T23:35:24.162Z,6.48
2019-03-31T23:37:54.824Z,6.53
2019-03-31T23:40:25.424Z,6.39
2019-03-31T23:42:56.307Z,6.43
2019-03-31T23:45:26.893Z,6.41
2019-03-31T23:47:57.550Z,6.49
2019-03-31T23:50:28.151Z,6.43
2019-03-31T23:52:58.926Z,6.33
2019-03-31T23:55:29.585Z,5.77
2019-03-31T23:58:04.269Z,5.89
